sensor_id;sensor_type;location;lat;lon;timestamp;temperature;humidity
24035;DHT22;12242;50.952;4.678;2023-05-10T00:01:54;14.00;99.90
24035;DHT22;12242;50.952;4.678;2023-05-10T00:04:21;14.20;99.90
24035;DHT22;12242;50.952;4.678;2023-05-10T00:06:49;14.20;99.90
24035;DHT22;12242;50.952;4.678;2023-05-10T00:19:26;14.00;99.90
24035;DHT22;12242;50.952;4.678;2023-05-10T00:21:54;13.90;99.90
24035;DHT22;12242;50.952;4.678;2023-05-10T00:24:21;13.90;99.90
24035;DHT22;12242;50.952;4.678;2023-05-10T00:26:49;13.80;99.90
24035;DHT22;12242;50.952;4.678;2023-05-10T00:29:16;13.80;99.90
24035;DHT22;12242;50.952;4.678;2023-05-10T00:31:44;13.90;99.90
24035;DHT22;12242;50.952;4.678;2023-05-10T00:34:12;13.90;99.90
24035;DHT22;12242;50.952;4.678;2023-05-10T00:36:57;13.90;99.90
24035;DHT22;12242;50.952;4.678;2023-05-10T00:39:25;14.00;99.90
24035;DHT22;12242;50.952;4.678;2023-05-10T00:41:53;13.80;99.90
24035;DHT22;12242;50.952;4.678;2023-05-10T00:44:21;13.90;99.90
24035;DHT22;12242;50.952;4.678;2023-05-10T00:46:49;13.80;99.90
24035;DHT22;12242;50.952;4.678;2023-05-10T00:49:17;13.70;99.90
24035;DHT22;12242;50.952;4.678;2023-05-10T00:51:45;13.70;99.90
24035;DHT22;12242;50.952;4.678;2023-05-10T00:54:14;13.70;99.90
24035;DHT22;12242;50.952;4.678;2023-05-10T00:56:42;13.60;99.90
24035;DHT22;12242;50.952;4.678;2023-05-10T00:59:16;13.70;99.90
24035;DHT22;12242;50.952;4.678;2023-05-10T01:01:45;13.70;99.90
24035;DHT22;12242;50.952;4.678;2023-05-10T01:04:14;13.80;99.90
24035;DHT22;12242;50.952;4.678;2023-05-10T01:06:42;13.80;99.90
24035;DHT22;12242;50.952;4.678;2023-05-10T01:09:10;13.90;99.90
24035;DHT22;12242;50.952;4.678;2023-05-10T01:11:39;13.80;99.90
24035;DHT22;12242;50.952;4.678;2023-05-10T01:14:07;13.90;99.90
24035;DHT22;12242;50.952;4.678;2023-05-10T01:16:37;13.80;99.90
24035;DHT22;12242;50.952;4.678;2023-05-10T01:35:06;13.80;99.90
24035;DHT22;12242;50.952;4.678;2023-05-10T01:41:10;13.70;99.90
24035;DHT22;12242;50.952;4.678;2023-05-10T01:46:55;13.70;99.90
24035;DHT22;12242;50.952;4.678;2023-05-10T01:49:32;13.60;99.90
24035;DHT22;12242;50.952;4.678;2023-05-10T01:52:06;13.70;99.90
24035;DHT22;12242;50.952;4.678;2023-05-10T01:54:35;13.70;99.90
24035;DHT22;12242;50.952;4.678;2023-05-10T01:57:06;13.70;99.90
24035;DHT22;12242;50.952;4.678;2023-05-10T01:59:38;13.80;99.90
24035;DHT22;12242;50.952;4.678;2023-05-10T02:02:08;13.80;99.90
24035;DHT22;12242;50.952;4.678;2023-05-10T02:04:40;13.80;99.90
24035;DHT22;12242;50.952;4.678;2023-05-10T02:07:09;13.60;99.90
24035;DHT22;12242;50.952;4.678;2023-05-10T02:09:37;13.60;99.90
24035;DHT22;12242;50.952;4.678;2023-05-10T02:12:06;13.60;99.90
24035;DHT22;12242;50.952;4.678;2023-05-10T02:14:35;13.60;99.90
24035;DHT22;12242;50.952;4.678;2023-05-10T02:17:05;13.70;99.90
24035;DHT22;12242;50.952;4.678;2023-05-10T02:19:34;13.60;99.90
24035;DHT22;12242;50.952;4.678;2023-05-10T02:22:03;13.60;99.90
24035;DHT22;12242;50.952;4.678;2023-05-10T02:24:32;13.50;99.90
24035;DHT22;12242;50.952;4.678;2023-05-10T02:27:02;13.60;99.90
24035;DHT22;12242;50.952;4.678;2023-05-10T02:29:31;13.70;99.90
24035;DHT22;12242;50.952;4.678;2023-05-10T02:32:00;13.60;99.90
24035;DHT22;12242;50.952;4.678;2023-05-10T02:34:30;13.50;99.90
24035;DHT22;12242;50.952;4.678;2023-05-10T02:36:59;13.60;99.90
24035;DHT22;12242;50.952;4.678;2023-05-10T02:39:28;13.60;99.90
24035;DHT22;12242;50.952;4.678;2023-05-10T02:41:57;13.70;99.90
24035;DHT22;12242;50.952;4.678;2023-05-10T02:44:27;13.70;99.90
24035;DHT22;12242;50.952;4.678;2023-05-10T02:46:58;13.70;99.90
24035;DHT22;12242;50.952;4.678;2023-05-10T02:49:26;13.80;99.90
24035;DHT22;12242;50.952;4.678;2023-05-10T02:51:59;13.70;99.90
24035;DHT22;12242;50.952;4.678;2023-05-10T02:54:31;13.60;99.90
24035;DHT22;12242;50.952;4.678;2023-05-10T02:57:01;13.70;99.90
24035;DHT22;12242;50.952;4.678;2023-05-10T02:59:31;13.80;99.90
24035;DHT22;12242;50.952;4.678;2023-05-10T03:02:00;13.60;99.90
24035;DHT22;12242;50.952;4.678;2023-05-10T03:04:29;13.60;99.90
24035;DHT22;12242;50.952;4.678;2023-05-10T03:06:57;13.70;99.90
24035;DHT22;12242;50.952;4.678;2023-05-10T03:09:24;13.70;99.90
24035;DHT22;12242;50.952;4.678;2023-05-10T03:12:11;13.60;99.90
24035;DHT22;12242;50.952;4.678;2023-05-10T03:19:56;13.70;99.90
24035;DHT22;12242;50.952;4.678;2023-05-10T03:22:45;13.70;99.90
24035;DHT22;12242;50.952;4.678;2023-05-10T03:25:16;13.50;99.90
24035;DHT22;12242;50.952;4.678;2023-05-10T03:27:44;13.40;99.90
24035;DHT22;12242;50.952;4.678;2023-05-10T03:30:13;13.40;99.90
24035;DHT22;12242;50.952;4.678;2023-05-10T03:32:41;13.40;99.90
24035;DHT22;12242;50.952;4.678;2023-05-10T03:35:10;13.40;99.90
24035;DHT22;12242;50.952;4.678;2023-05-10T03:37:37;13.40;99.90
24035;DHT22;12242;50.952;4.678;2023-05-10T03:40:05;13.50;99.90
24035;DHT22;12242;50.952;4.678;2023-05-10T03:42:33;13.50;99.90
24035;DHT22;12242;50.952;4.678;2023-05-10T03:45:01;13.50;99.90
24035;DHT22;12242;50.952;4.678;2023-05-10T03:47:28;13.40;99.90
24035;DHT22;12242;50.952;4.678;2023-05-10T03:49:57;13.40;99.90
24035;DHT22;12242;50.952;4.678;2023-05-10T03:52:24;13.50;99.90
24035;DHT22;12242;50.952;4.678;2023-05-10T03:54:52;13.60;99.90
24035;DHT22;12242;50.952;4.678;2023-05-10T03:57:20;13.60;99.90
24035;DHT22;12242;50.952;4.678;2023-05-10T03:59:47;13.50;99.90
24035;DHT22;12242;50.952;4.678;2023-05-10T04:02:16;13.40;99.90
24035;DHT22;12242;50.952;4.678;2023-05-10T04:04:43;13.30;99.90
24035;DHT22;12242;50.952;4.678;2023-05-10T04:07:11;13.30;99.90
24035;DHT22;12242;50.952;4.678;2023-05-10T04:09:38;13.40;99.90
24035;DHT22;12242;50.952;4.678;2023-05-10T04:12:06;13.40;99.90
24035;DHT22;12242;50.952;4.678;2023-05-10T04:14:37;13.60;99.90
24035;DHT22;12242;50.952;4.678;2023-05-10T04:17:04;13.40;99.90
24035;DHT22;12242;50.952;4.678;2023-05-10T04:19:33;13.50;99.90
24035;DHT22;12242;50.952;4.678;2023-05-10T04:22:02;13.40;99.90
24035;DHT22;12242;50.952;4.678;2023-05-10T04:24:29;13.30;99.90
24035;DHT22;12242;50.952;4.678;2023-05-10T04:26:57;13.40;99.90
24035;DHT22;12242;50.952;4.678;2023-05-10T04:29:24;13.20;99.90
24035;DHT22;12242;50.952;4.678;2023-05-10T04:31:52;13.00;99.90
24035;DHT22;12242;50.952;4.678;2023-05-10T04:34:20;13.10;99.90
24035;DHT22;12242;50.952;4.678;2023-05-10T04:36:48;13.10;99.90
24035;DHT22;12242;50.952;4.678;2023-05-10T04:39:16;13.10;99.90
24035;DHT22;12242;50.952;4.678;2023-05-10T04:41:43;13.00;99.90
24035;DHT22;12242;50.952;4.678;2023-05-10T04:44:11;12.80;99.90
24035;DHT22;12242;50.952;4.678;2023-05-10T04:46:38;12.90;99.90
24035;DHT22;12242;50.952;4.678;2023-05-10T04:49:06;13.10;99.90
24035;DHT22;12242;50.952;4.678;2023-05-10T04:51:34;13.10;99.90
24035;DHT22;12242;50.952;4.678;2023-05-10T04:54:04;13.20;99.90
24035;DHT22;12242;50.952;4.678;2023-05-10T04:56:33;13.20;99.90
24035;DHT22;12242;50.952;4.678;2023-05-10T04:59:00;13.20;99.90
24035;DHT22;12242;50.952;4.678;2023-05-10T05:01:28;13.20;99.90
24035;DHT22;12242;50.952;4.678;2023-05-10T05:03:56;13.20;99.90
24035;DHT22;12242;50.952;4.678;2023-05-10T05:06:24;13.30;99.90
24035;DHT22;12242;50.952;4.678;2023-05-10T05:08:52;13.40;99.90
24035;DHT22;12242;50.952;4.678;2023-05-10T05:11:19;13.60;99.90
24035;DHT22;12242;50.952;4.678;2023-05-10T05:13:48;13.60;99.90
24035;DHT22;12242;50.952;4.678;2023-05-10T05:16:15;13.70;99.90
24035;DHT22;12242;50.952;4.678;2023-05-10T05:18:44;13.80;99.90
24035;DHT22;12242;50.952;4.678;2023-05-10T05:21:18;13.90;99.90
24035;DHT22;12242;50.952;4.678;2023-05-10T05:23:46;13.80;99.90
24035;DHT22;12242;50.952;4.678;2023-05-10T05:26:13;13.80;99.90
24035;DHT22;12242;50.952;4.678;2023-05-10T05:28:42;13.90;99.90
24035;DHT22;12242;50.952;4.678;2023-05-10T05:33:56;14.00;99.90
24035;DHT22;12242;50.952;4.678;2023-05-10T05:36:23;14.10;99.90
24035;DHT22;12242;50.952;4.678;2023-05-10T05:38:51;14.20;99.90
24035;DHT22;12242;50.952;4.678;2023-05-10T05:41:19;14.20;99.90
24035;DHT22;12242;50.952;4.678;2023-05-10T05:43:47;14.00;99.90
24035;DHT22;12242;50.952;4.678;2023-05-10T05:46:15;14.00;99.90
24035;DHT22;12242;50.952;4.678;2023-05-10T05:48:42;14.10;99.90
24035;DHT22;12242;50.952;4.678;2023-05-10T05:51:10;14.20;99.90
24035;DHT22;12242;50.952;4.678;2023-05-10T05:53:37;14.30;99.90
24035;DHT22;12242;50.952;4.678;2023-05-10T05:56:05;14.40;99.90
24035;DHT22;12242;50.952;4.678;2023-05-10T05:58:33;14.50;99.90
24035;DHT22;12242;50.952;4.678;2023-05-10T06:01:00;14.70;99.90
24035;DHT22;12242;50.952;4.678;2023-05-10T06:03:28;14.80;99.90
24035;DHT22;12242;50.952;4.678;2023-05-10T06:05:56;14.90;99.90
24035;DHT22;12242;50.952;4.678;2023-05-10T06:08:23;15.20;99.90
24035;DHT22;12242;50.952;4.678;2023-05-10T06:10:51;15.30;99.90
24035;DHT22;12242;50.952;4.678;2023-05-10T06:13:18;15.50;99.90
24035;DHT22;12242;50.952;4.678;2023-05-10T06:15:46;15.70;99.90
24035;DHT22;12242;50.952;4.678;2023-05-10T06:18:13;16.00;99.90
24035;DHT22;12242;50.952;4.678;2023-05-10T06:20:41;16.20;99.90
24035;DHT22;12242;50.952;4.678;2023-05-10T06:23:09;16.30;99.90
24035;DHT22;12242;50.952;4.678;2023-05-10T06:25:37;16.20;99.90
24035;DHT22;12242;50.952;4.678;2023-05-10T06:28:04;16.20;99.90
24035;DHT22;12242;50.952;4.678;2023-05-10T06:30:32;16.00;99.90
24035;DHT22;12242;50.952;4.678;2023-05-10T06:32:59;15.80;99.90
24035;DHT22;12242;50.952;4.678;2023-05-10T06:35:28;15.60;99.90
24035;DHT22;12242;50.952;4.678;2023-05-10T06:37:55;15.40;99.90
24035;DHT22;12242;50.952;4.678;2023-05-10T06:40:23;15.30;99.90
24035;DHT22;12242;50.952;4.678;2023-05-10T06:42:51;15.10;99.90
24035;DHT22;12242;50.952;4.678;2023-05-10T06:45:18;15.00;99.90
24035;DHT22;12242;50.952;4.678;2023-05-10T06:47:46;15.20;99.90
24035;DHT22;12242;50.952;4.678;2023-05-10T06:50:14;15.20;99.90
24035;DHT22;12242;50.952;4.678;2023-05-10T06:52:42;15.20;99.90
24035;DHT22;12242;50.952;4.678;2023-05-10T06:55:10;15.10;99.90
24035;DHT22;12242;50.952;4.678;2023-05-10T06:57:38;15.10;99.90
24035;DHT22;12242;50.952;4.678;2023-05-10T07:00:06;15.20;99.90
24035;DHT22;12242;50.952;4.678;2023-05-10T07:02:34;15.10;99.90
24035;DHT22;12242;50.952;4.678;2023-05-10T07:05:02;15.20;99.90
24035;DHT22;12242;50.952;4.678;2023-05-10T07:07:29;15.10;99.90
24035;DHT22;12242;50.952;4.678;2023-05-10T07:09:57;15.50;99.90
24035;DHT22;12242;50.952;4.678;2023-05-10T07:12:25;15.90;99.90
24035;DHT22;12242;50.952;4.678;2023-05-10T07:14:52;16.10;99.90
24035;DHT22;12242;50.952;4.678;2023-05-10T07:17:20;16.30;99.90
24035;DHT22;12242;50.952;4.678;2023-05-10T07:19:48;16.60;99.90
24035;DHT22;12242;50.952;4.678;2023-05-10T07:22:16;16.80;99.90
24035;DHT22;12242;50.952;4.678;2023-05-10T07:24:44;17.00;99.90
24035;DHT22;12242;50.952;4.678;2023-05-10T07:27:11;17.10;99.90
24035;DHT22;12242;50.952;4.678;2023-05-10T07:29:40;17.20;99.90
24035;DHT22;12242;50.952;4.678;2023-05-10T07:32:07;16.90;99.90
24035;DHT22;12242;50.952;4.678;2023-05-10T07:34:35;16.80;99.90
24035;DHT22;12242;50.952;4.678;2023-05-10T07:37:03;16.60;99.90
24035;DHT22;12242;50.952;4.678;2023-05-10T07:39:30;16.50;99.90
24035;DHT22;12242;50.952;4.678;2023-05-10T07:41:58;16.40;99.90
24035;DHT22;12242;50.952;4.678;2023-05-10T07:44:25;16.00;99.90
24035;DHT22;12242;50.952;4.678;2023-05-10T07:46:53;15.70;99.90
24035;DHT22;12242;50.952;4.678;2023-05-10T07:49:21;15.50;99.90
24035;DHT22;12242;50.952;4.678;2023-05-10T07:51:51;15.30;99.90
24035;DHT22;12242;50.952;4.678;2023-05-10T07:54:19;15.20;99.90
24035;DHT22;12242;50.952;4.678;2023-05-10T07:56:47;15.00;99.90
24035;DHT22;12242;50.952;4.678;2023-05-10T07:59:16;15.00;99.90
24035;DHT22;12242;50.952;4.678;2023-05-10T08:01:44;14.80;99.90
24035;DHT22;12242;50.952;4.678;2023-05-10T08:04:12;14.60;99.90
24035;DHT22;12242;50.952;4.678;2023-05-10T08:06:40;14.60;99.90
24035;DHT22;12242;50.952;4.678;2023-05-10T08:09:08;14.90;99.90
24035;DHT22;12242;50.952;4.678;2023-05-10T08:11:36;14.70;99.90
24035;DHT22;12242;50.952;4.678;2023-05-10T08:14:03;14.60;99.90
24035;DHT22;12242;50.952;4.678;2023-05-10T08:16:31;14.70;99.90
24035;DHT22;12242;50.952;4.678;2023-05-10T08:18:59;14.90;99.90
24035;DHT22;12242;50.952;4.678;2023-05-10T08:21:27;15.10;99.90
24035;DHT22;12242;50.952;4.678;2023-05-10T08:23:55;15.30;99.90
24035;DHT22;12242;50.952;4.678;2023-05-10T08:26:22;15.40;99.90
24035;DHT22;12242;50.952;4.678;2023-05-10T08:28:50;15.40;99.90
24035;DHT22;12242;50.952;4.678;2023-05-10T08:31:17;15.20;99.90
24035;DHT22;12242;50.952;4.678;2023-05-10T08:33:45;14.90;99.90
24035;DHT22;12242;50.952;4.678;2023-05-10T08:36:13;14.80;99.90
24035;DHT22;12242;50.952;4.678;2023-05-10T08:38:42;14.40;99.90
24035;DHT22;12242;50.952;4.678;2023-05-10T08:41:10;14.40;99.90
24035;DHT22;12242;50.952;4.678;2023-05-10T08:43:39;14.60;99.90
24035;DHT22;12242;50.952;4.678;2023-05-10T08:46:09;15.10;99.90
24035;DHT22;12242;50.952;4.678;2023-05-10T08:48:38;15.50;99.90
24035;DHT22;12242;50.952;4.678;2023-05-10T08:51:06;15.70;99.90
24035;DHT22;12242;50.952;4.678;2023-05-10T08:53:36;15.50;99.90
24035;DHT22;12242;50.952;4.678;2023-05-10T08:56:04;15.40;99.90
24035;DHT22;12242;50.952;4.678;2023-05-10T08:58:32;15.20;99.90
24035;DHT22;12242;50.952;4.678;2023-05-10T09:01:00;15.50;99.90
24035;DHT22;12242;50.952;4.678;2023-05-10T09:03:29;15.30;99.90
24035;DHT22;12242;50.952;4.678;2023-05-10T09:05:57;15.30;99.90
24035;DHT22;12242;50.952;4.678;2023-05-10T09:08:25;15.50;99.90
24035;DHT22;12242;50.952;4.678;2023-05-10T09:10:54;15.40;99.90
24035;DHT22;12242;50.952;4.678;2023-05-10T09:13:23;15.10;99.90
24035;DHT22;12242;50.952;4.678;2023-05-10T09:15:52;15.00;99.90
24035;DHT22;12242;50.952;4.678;2023-05-10T09:18:20;14.90;99.90
24035;DHT22;12242;50.952;4.678;2023-05-10T09:20:48;14.80;99.90
24035;DHT22;12242;50.952;4.678;2023-05-10T09:23:16;14.80;99.90
24035;DHT22;12242;50.952;4.678;2023-05-10T09:25:43;14.90;99.90
24035;DHT22;12242;50.952;4.678;2023-05-10T09:28:11;15.00;99.90
24035;DHT22;12242;50.952;4.678;2023-05-10T09:30:39;15.00;99.90
24035;DHT22;12242;50.952;4.678;2023-05-10T09:33:07;15.00;99.90
24035;DHT22;12242;50.952;4.678;2023-05-10T09:35:35;15.20;99.90
24035;DHT22;12242;50.952;4.678;2023-05-10T09:38:04;15.40;99.90
24035;DHT22;12242;50.952;4.678;2023-05-10T09:40:32;15.30;99.90
24035;DHT22;12242;50.952;4.678;2023-05-10T09:43:10;15.30;99.90
24035;DHT22;12242;50.952;4.678;2023-05-10T09:45:38;15.40;99.90
24035;DHT22;12242;50.952;4.678;2023-05-10T09:48:08;15.60;99.90
24035;DHT22;12242;50.952;4.678;2023-05-10T09:50:36;15.70;99.90
24035;DHT22;12242;50.952;4.678;2023-05-10T09:53:04;15.70;99.90
24035;DHT22;12242;50.952;4.678;2023-05-10T09:55:42;15.60;99.90
24035;DHT22;12242;50.952;4.678;2023-05-10T09:58:14;15.50;99.90
24035;DHT22;12242;50.952;4.678;2023-05-10T10:00:43;15.30;99.90
24035;DHT22;12242;50.952;4.678;2023-05-10T10:03:16;15.10;99.90
24035;DHT22;12242;50.952;4.678;2023-05-10T10:05:44;15.20;99.90
24035;DHT22;12242;50.952;4.678;2023-05-10T10:08:14;15.30;99.90
24035;DHT22;12242;50.952;4.678;2023-05-10T10:10:42;15.40;99.90
24035;DHT22;12242;50.952;4.678;2023-05-10T10:13:14;15.70;99.90
24035;DHT22;12242;50.952;4.678;2023-05-10T10:15:43;15.80;99.90
24035;DHT22;12242;50.952;4.678;2023-05-10T10:18:13;16.00;99.90
24035;DHT22;12242;50.952;4.678;2023-05-10T10:20:42;16.10;99.90
24035;DHT22;12242;50.952;4.678;2023-05-10T10:23:10;16.20;99.90
24035;DHT22;12242;50.952;4.678;2023-05-10T10:25:38;16.30;99.90
24035;DHT22;12242;50.952;4.678;2023-05-10T10:28:26;16.30;99.90
24035;DHT22;12242;50.952;4.678;2023-05-10T10:31:03;16.60;99.90
24035;DHT22;12242;50.952;4.678;2023-05-10T10:36:51;16.80;99.90
24035;DHT22;12242;50.952;4.678;2023-05-10T10:39:20;17.60;99.90
24035;DHT22;12242;50.952;4.678;2023-05-10T10:41:55;17.60;99.90
24035;DHT22;12242;50.952;4.678;2023-05-10T10:44:24;17.40;99.90
24035;DHT22;12242;50.952;4.678;2023-05-10T10:49:54;17.50;99.90
24035;DHT22;12242;50.952;4.678;2023-05-10T10:52:34;17.40;99.90
24035;DHT22;12242;50.952;4.678;2023-05-10T10:55:07;17.40;99.90
24035;DHT22;12242;50.952;4.678;2023-05-10T10:57:49;17.30;99.90
24035;DHT22;12242;50.952;4.678;2023-05-10T11:00:36;17.30;99.90
24035;DHT22;12242;50.952;4.678;2023-05-10T11:03:07;17.30;99.90
24035;DHT22;12242;50.952;4.678;2023-05-10T11:05:38;17.70;99.90
24035;DHT22;12242;50.952;4.678;2023-05-10T11:08:29;17.60;99.90
24035;DHT22;12242;50.952;4.678;2023-05-10T11:16:19;18.00;99.90
24035;DHT22;12242;50.952;4.678;2023-05-10T11:19:04;18.20;99.90
24035;DHT22;12242;50.952;4.678;2023-05-10T11:21:32;18.50;99.90
24035;DHT22;12242;50.952;4.678;2023-05-10T11:24:02;18.40;99.90
24035;DHT22;12242;50.952;4.678;2023-05-10T11:26:39;18.90;99.90
24035;DHT22;12242;50.952;4.678;2023-05-10T11:29:07;19.10;99.90
24035;DHT22;12242;50.952;4.678;2023-05-10T11:31:35;18.70;99.90
24035;DHT22;12242;50.952;4.678;2023-05-10T11:34:10;17.80;99.90
24035;DHT22;12242;50.952;4.678;2023-05-10T11:36:38;18.50;99.90
24035;DHT22;12242;50.952;4.678;2023-05-10T11:39:05;19.40;99.90
24035;DHT22;12242;50.952;4.678;2023-05-10T11:41:33;20.30;99.90
24035;DHT22;12242;50.952;4.678;2023-05-10T11:44:01;19.60;99.90
24035;DHT22;12242;50.952;4.678;2023-05-10T11:46:29;19.60;99.90
24035;DHT22;12242;50.952;4.678;2023-05-10T11:49:00;19.50;99.90
24035;DHT22;12242;50.952;4.678;2023-05-10T11:51:29;19.80;99.90
24035;DHT22;12242;50.952;4.678;2023-05-10T11:54:01;20.00;99.90
24035;DHT22;12242;50.952;4.678;2023-05-10T11:56:32;20.50;99.90
24035;DHT22;12242;50.952;4.678;2023-05-10T11:59:00;20.80;99.90
24035;DHT22;12242;50.952;4.678;2023-05-10T12:01:30;20.50;99.90
24035;DHT22;12242;50.952;4.678;2023-05-10T12:03:58;20.50;99.90
24035;DHT22;12242;50.952;4.678;2023-05-10T12:06:32;20.90;99.90
24035;DHT22;12242;50.952;4.678;2023-05-10T12:09:05;21.50;99.90
24035;DHT22;12242;50.952;4.678;2023-05-10T12:11:38;21.60;99.90
24035;DHT22;12242;50.952;4.678;2023-05-10T12:14:10;21.80;99.90
24035;DHT22;12242;50.952;4.678;2023-05-10T12:16:38;22.20;99.90
24035;DHT22;12242;50.952;4.678;2023-05-10T12:19:06;22.80;99.90
24035;DHT22;12242;50.952;4.678;2023-05-10T12:21:34;22.20;99.90
24035;DHT22;12242;50.952;4.678;2023-05-10T12:24:03;21.80;99.90
24035;DHT22;12242;50.952;4.678;2023-05-10T12:26:32;21.90;99.90
24035;DHT22;12242;50.952;4.678;2023-05-10T12:29:12;22.00;99.90
24035;DHT22;12242;50.952;4.678;2023-05-10T12:31:54;22.50;99.90
24035;DHT22;12242;50.952;4.678;2023-05-10T12:34:29;22.80;99.90
24035;DHT22;12242;50.952;4.678;2023-05-10T12:36:57;22.90;99.90
24035;DHT22;12242;50.952;4.678;2023-05-10T12:39:25;22.70;99.90
24035;DHT22;12242;50.952;4.678;2023-05-10T12:41:53;22.20;99.90
24035;DHT22;12242;50.952;4.678;2023-05-10T12:44:21;21.70;99.90
24035;DHT22;12242;50.952;4.678;2023-05-10T12:46:48;21.50;99.90
24035;DHT22;12242;50.952;4.678;2023-05-10T12:49:16;21.60;99.90
24035;DHT22;12242;50.952;4.678;2023-05-10T12:51:46;21.20;99.90
24035;DHT22;12242;50.952;4.678;2023-05-10T12:54:13;21.20;99.90
24035;DHT22;12242;50.952;4.678;2023-05-10T12:56:41;21.60;99.90
24035;DHT22;12242;50.952;4.678;2023-05-10T12:59:09;21.60;99.90
24035;DHT22;12242;50.952;4.678;2023-05-10T13:01:37;21.40;99.90
24035;DHT22;12242;50.952;4.678;2023-05-10T13:04:05;21.40;99.90
24035;DHT22;12242;50.952;4.678;2023-05-10T13:06:33;21.10;99.90
24035;DHT22;12242;50.952;4.678;2023-05-10T13:09:00;21.00;99.90
24035;DHT22;12242;50.952;4.678;2023-05-10T13:11:28;20.90;99.90
24035;DHT22;12242;50.952;4.678;2023-05-10T13:13:56;21.00;99.90
24035;DHT22;12242;50.952;4.678;2023-05-10T13:16:23;21.20;99.90
24035;DHT22;12242;50.952;4.678;2023-05-10T13:18:51;20.90;99.90
24035;DHT22;12242;50.952;4.678;2023-05-10T13:21:19;20.30;99.90
24035;DHT22;12242;50.952;4.678;2023-05-10T13:23:47;20.50;99.90
24035;DHT22;12242;50.952;4.678;2023-05-10T13:26:14;20.20;99.90
24035;DHT22;12242;50.952;4.678;2023-05-10T13:28:43;19.60;99.90
24035;DHT22;12242;50.952;4.678;2023-05-10T13:31:13;19.30;99.90
24035;DHT22;12242;50.952;4.678;2023-05-10T13:33:41;19.40;99.90
24035;DHT22;12242;50.952;4.678;2023-05-10T13:36:09;19.20;99.90
24035;DHT22;12242;50.952;4.678;2023-05-10T13:38:38;19.00;99.90
24035;DHT22;12242;50.952;4.678;2023-05-10T13:41:06;19.50;99.90
24035;DHT22;12242;50.952;4.678;2023-05-10T13:43:33;19.80;99.90
24035;DHT22;12242;50.952;4.678;2023-05-10T13:46:02;19.90;99.90
24035;DHT22;12242;50.952;4.678;2023-05-10T13:48:30;20.10;99.90
24035;DHT22;12242;50.952;4.678;2023-05-10T13:50:57;20.20;99.90
24035;DHT22;12242;50.952;4.678;2023-05-10T13:53:25;20.10;99.90
24035;DHT22;12242;50.952;4.678;2023-05-10T13:55:52;19.30;99.90
24035;DHT22;12242;50.952;4.678;2023-05-10T13:58:20;19.50;99.90
24035;DHT22;12242;50.952;4.678;2023-05-10T14:00:49;19.80;99.90
24035;DHT22;12242;50.952;4.678;2023-05-10T14:03:16;20.20;99.90
24035;DHT22;12242;50.952;4.678;2023-05-10T14:05:44;20.40;99.90
24035;DHT22;12242;50.952;4.678;2023-05-10T14:08:12;20.50;99.90
24035;DHT22;12242;50.952;4.678;2023-05-10T14:10:40;20.40;99.90
24035;DHT22;12242;50.952;4.678;2023-05-10T14:13:08;19.90;99.90
24035;DHT22;12242;50.952;4.678;2023-05-10T14:15:35;20.00;99.90
24035;DHT22;12242;50.952;4.678;2023-05-10T14:18:03;20.00;99.90
24035;DHT22;12242;50.952;4.678;2023-05-10T14:20:31;19.90;99.90
24035;DHT22;12242;50.952;4.678;2023-05-10T14:23:01;20.10;99.90
24035;DHT22;12242;50.952;4.678;2023-05-10T14:25:30;20.30;99.90
24035;DHT22;12242;50.952;4.678;2023-05-10T14:27:58;20.40;99.90
24035;DHT22;12242;50.952;4.678;2023-05-10T14:30:25;19.90;99.90
24035;DHT22;12242;50.952;4.678;2023-05-10T14:32:53;19.70;99.90
24035;DHT22;12242;50.952;4.678;2023-05-10T14:35:21;19.70;99.90
24035;DHT22;12242;50.952;4.678;2023-05-10T14:37:49;19.90;99.90
24035;DHT22;12242;50.952;4.678;2023-05-10T14:40:17;19.70;99.90
24035;DHT22;12242;50.952;4.678;2023-05-10T14:42:45;19.60;99.90
24035;DHT22;12242;50.952;4.678;2023-05-10T14:45:12;19.60;99.90
24035;DHT22;12242;50.952;4.678;2023-05-10T14:47:40;19.60;99.90
24035;DHT22;12242;50.952;4.678;2023-05-10T14:50:08;19.30;99.90
24035;DHT22;12242;50.952;4.678;2023-05-10T14:52:35;19.30;99.90
24035;DHT22;12242;50.952;4.678;2023-05-10T14:55:03;19.30;99.90
24035;DHT22;12242;50.952;4.678;2023-05-10T14:57:31;19.40;99.90
24035;DHT22;12242;50.952;4.678;2023-05-10T14:59:59;19.50;99.90
24035;DHT22;12242;50.952;4.678;2023-05-10T15:02:27;19.70;99.90
24035;DHT22;12242;50.952;4.678;2023-05-10T15:04:55;20.00;99.90
24035;DHT22;12242;50.952;4.678;2023-05-10T15:07:24;19.50;99.90
24035;DHT22;12242;50.952;4.678;2023-05-10T15:09:52;19.20;99.90
24035;DHT22;12242;50.952;4.678;2023-05-10T15:12:21;19.10;99.90
24035;DHT22;12242;50.952;4.678;2023-05-10T15:14:48;19.00;99.90
24035;DHT22;12242;50.952;4.678;2023-05-10T15:17:16;19.20;99.90
24035;DHT22;12242;50.952;4.678;2023-05-10T15:19:44;18.90;99.90
24035;DHT22;12242;50.952;4.678;2023-05-10T15:22:11;18.70;99.90
24035;DHT22;12242;50.952;4.678;2023-05-10T15:24:39;18.70;99.90
24035;DHT22;12242;50.952;4.678;2023-05-10T15:27:06;18.40;99.90
24035;DHT22;12242;50.952;4.678;2023-05-10T15:29:34;18.40;99.90
24035;DHT22;12242;50.952;4.678;2023-05-10T15:32:02;18.40;99.90
24035;DHT22;12242;50.952;4.678;2023-05-10T15:34:30;17.90;99.90
24035;DHT22;12242;50.952;4.678;2023-05-10T15:37:02;17.80;99.90
24035;DHT22;12242;50.952;4.678;2023-05-10T15:39:29;17.80;99.90
24035;DHT22;12242;50.952;4.678;2023-05-10T15:41:58;17.90;99.90
24035;DHT22;12242;50.952;4.678;2023-05-10T15:44:26;17.70;99.90
24035;DHT22;12242;50.952;4.678;2023-05-10T15:46:53;17.70;99.90
24035;DHT22;12242;50.952;4.678;2023-05-10T15:49:21;17.50;99.90
24035;DHT22;12242;50.952;4.678;2023-05-10T15:51:48;17.20;99.90
24035;DHT22;12242;50.952;4.678;2023-05-10T15:54:16;17.00;99.90
24035;DHT22;12242;50.952;4.678;2023-05-10T15:56:43;16.90;99.90
24035;DHT22;12242;50.952;4.678;2023-05-10T15:59:11;16.80;99.90
24035;DHT22;12242;50.952;4.678;2023-05-10T16:01:38;16.70;99.90
24035;DHT22;12242;50.952;4.678;2023-05-10T16:04:06;16.50;99.90
24035;DHT22;12242;50.952;4.678;2023-05-10T16:06:36;16.60;99.90
24035;DHT22;12242;50.952;4.678;2023-05-10T16:09:04;16.40;99.90
24035;DHT22;12242;50.952;4.678;2023-05-10T16:11:31;16.40;99.90
24035;DHT22;12242;50.952;4.678;2023-05-10T16:13:59;16.30;99.90
24035;DHT22;12242;50.952;4.678;2023-05-10T16:16:26;16.00;99.90
24035;DHT22;12242;50.952;4.678;2023-05-10T16:18:55;15.80;99.90
24035;DHT22;12242;50.952;4.678;2023-05-10T16:21:23;15.70;99.90
24035;DHT22;12242;50.952;4.678;2023-05-10T16:23:50;15.70;99.90
24035;DHT22;12242;50.952;4.678;2023-05-10T16:26:18;15.80;99.90
24035;DHT22;12242;50.952;4.678;2023-05-10T16:28:47;16.00;99.90
24035;DHT22;12242;50.952;4.678;2023-05-10T16:31:15;16.10;99.90
24035;DHT22;12242;50.952;4.678;2023-05-10T16:33:45;16.30;99.90